sensor_id;sensor_type;location;lat;lon;timestamp;P1;durP1;ratioP1;P2;durP2;ratioP2
12725;SDS011;6427;49.754;6.106;2023-06-04T00:01:06;6.07;;;2.47;;
12725;SDS011;6427;49.754;6.106;2023-06-04T00:03:34;5.70;;;2.10;;
12725;SDS011;6427;49.754;6.106;2023-06-04T00:06:01;5.50;;;2.10;;
12725;SDS011;6427;49.754;6.106;2023-06-04T00:08:29;4.37;;;2.10;;
12725;SDS011;6427;49.754;6.106;2023-06-04T00:10:56;3.20;;;2.17;;
12725;SDS011;6427;49.754;6.106;2023-06-04T00:13:24;3.37;;;1.90;;
12725;SDS011;6427;49.754;6.106;2023-06-04T00:15:52;5.70;;;2.07;;
12725;SDS011;6427;49.754;6.106;2023-06-04T00:18:20;4.57;;;1.90;;
12725;SDS011;6427;49.754;6.106;2023-06-04T00:20:48;3.95;;;2.03;;
12725;SDS011;6427;49.754;6.106;2023-06-04T00:23:15;3.87;;;2.20;;
12725;SDS011;6427;49.754;6.106;2023-06-04T00:25:43;3.53;;;2.03;;
12725;SDS011;6427;49.754;6.106;2023-06-04T00:28:10;2.60;;;1.80;;
12725;SDS011;6427;49.754;6.106;2023-06-04T00:30:38;3.90;;;1.83;;
12725;SDS011;6427;49.754;6.106;2023-06-04T00:33:06;2.10;;;1.53;;
12725;SDS011;6427;49.754;6.106;2023-06-04T00:35:35;4.57;;;1.97;;
12725;SDS011;6427;49.754;6.106;2023-06-04T00:38:02;3.20;;;2.13;;
12725;SDS011;6427;49.754;6.106;2023-06-04T00:40:30;3.03;;;1.90;;
12725;SDS011;6427;49.754;6.106;2023-06-04T00:42:57;4.50;;;2.03;;
12725;SDS011;6427;49.754;6.106;2023-06-04T00:45:25;2.33;;;1.80;;
12725;SDS011;6427;49.754;6.106;2023-06-04T00:47:53;3.80;;;1.97;;
12725;SDS011;6427;49.754;6.106;2023-06-04T00:50:20;2.67;;;1.63;;
12725;SDS011;6427;49.754;6.106;2023-06-04T00:52:49;5.18;;;2.30;;
12725;SDS011;6427;49.754;6.106;2023-06-04T00:55:16;3.15;;;2.00;;
12725;SDS011;6427;49.754;6.106;2023-06-04T00:57:44;3.47;;;2.00;;
12725;SDS011;6427;49.754;6.106;2023-06-04T01:00:12;4.27;;;1.87;;
12725;SDS011;6427;49.754;6.106;2023-06-04T01:02:41;3.10;;;1.83;;
12725;SDS011;6427;49.754;6.106;2023-06-04T01:05:17;6.30;;;1.90;;
12725;SDS011;6427;49.754;6.106;2023-06-04T01:07:51;5.70;;;2.10;;
12725;SDS011;6427;49.754;6.106;2023-06-04T01:10:19;3.53;;;1.60;;
12725;SDS011;6427;49.754;6.106;2023-06-04T01:12:46;11.47;;;2.23;;
12725;SDS011;6427;49.754;6.106;2023-06-04T01:15:14;4.33;;;1.43;;
12725;SDS011;6427;49.754;6.106;2023-06-04T01:17:42;4.67;;;1.27;;
12725;SDS011;6427;49.754;6.106;2023-06-04T01:25:20;7.33;;;1.93;;
12725;SDS011;6427;49.754;6.106;2023-06-04T01:27:48;3.03;;;1.85;;
12725;SDS011;6427;49.754;6.106;2023-06-04T01:30:16;2.73;;;1.30;;
12725;SDS011;6427;49.754;6.106;2023-06-04T01:32:43;6.50;;;1.60;;
12725;SDS011;6427;49.754;6.106;2023-06-04T01:35:12;3.00;;;1.45;;
12725;SDS011;6427;49.754;6.106;2023-06-04T01:37:39;1.63;;;1.23;;
12725;SDS011;6427;49.754;6.106;2023-06-04T01:40:08;4.10;;;1.60;;
12725;SDS011;6427;49.754;6.106;2023-06-04T01:42:35;2.97;;;1.63;;
12725;SDS011;6427;49.754;6.106;2023-06-04T01:45:04;4.37;;;1.50;;
12725;SDS011;6427;49.754;6.106;2023-06-04T01:47:31;2.00;;;1.30;;
12725;SDS011;6427;49.754;6.106;2023-06-04T01:50:00;6.40;;;1.30;;
12725;SDS011;6427;49.754;6.106;2023-06-04T01:52:27;3.37;;;1.47;;
12725;SDS011;6427;49.754;6.106;2023-06-04T01:54:55;3.23;;;1.40;;
12725;SDS011;6427;49.754;6.106;2023-06-04T01:57:22;2.60;;;1.60;;
12725;SDS011;6427;49.754;6.106;2023-06-04T01:59:51;3.07;;;1.93;;
12725;SDS011;6427;49.754;6.106;2023-06-04T02:02:19;4.57;;;2.00;;
12725;SDS011;6427;49.754;6.106;2023-06-04T02:04:47;3.87;;;2.30;;
12725;SDS011;6427;49.754;6.106;2023-06-04T02:07:14;7.83;;;1.70;;
12725;SDS011;6427;49.754;6.106;2023-06-04T02:09:42;4.37;;;2.10;;
12725;SDS011;6427;49.754;6.106;2023-06-04T02:12:09;3.33;;;1.80;;
12725;SDS011;6427;49.754;6.106;2023-06-04T02:14:37;3.40;;;1.77;;
12725;SDS011;6427;49.754;6.106;2023-06-04T02:17:05;2.73;;;1.70;;
12725;SDS011;6427;49.754;6.106;2023-06-04T02:19:32;2.37;;;1.53;;
12725;SDS011;6427;49.754;6.106;2023-06-04T02:22:00;2.93;;;1.63;;
12725;SDS011;6427;49.754;6.106;2023-06-04T02:24:28;3.70;;;1.40;;
12725;SDS011;6427;49.754;6.106;2023-06-04T02:26:55;2.40;;;1.60;;
12725;SDS011;6427;49.754;6.106;2023-06-04T02:29:23;1.90;;;1.53;;
12725;SDS011;6427;49.754;6.106;2023-06-04T02:31:50;2.13;;;1.30;;
12725;SDS011;6427;49.754;6.106;2023-06-04T02:34:18;3.07;;;1.50;;
12725;SDS011;6427;49.754;6.106;2023-06-04T02:36:46;3.13;;;1.30;;
12725;SDS011;6427;49.754;6.106;2023-06-04T02:39:13;3.03;;;1.27;;
12725;SDS011;6427;49.754;6.106;2023-06-04T02:41:41;3.30;;;1.30;;
12725;SDS011;6427;49.754;6.106;2023-06-04T02:44:09;2.33;;;1.30;;
12725;SDS011;6427;49.754;6.106;2023-06-04T02:46:37;1.63;;;1.40;;
12725;SDS011;6427;49.754;6.106;2023-06-04T02:49:04;1.37;;;1.10;;
12725;SDS011;6427;49.754;6.106;2023-06-04T02:51:33;2.70;;;1.67;;
12725;SDS011;6427;49.754;6.106;2023-06-04T02:54:00;2.13;;;1.20;;
12725;SDS011;6427;49.754;6.106;2023-06-04T02:56:29;3.60;;;1.50;;
12725;SDS011;6427;49.754;6.106;2023-06-04T02:58:56;3.73;;;1.30;;
12725;SDS011;6427;49.754;6.106;2023-06-04T03:01:24;4.07;;;1.30;;
12725;SDS011;6427;49.754;6.106;2023-06-04T03:03:52;7.80;;;1.40;;
12725;SDS011;6427;49.754;6.106;2023-06-04T03:06:19;2.72;;;1.40;;
12725;SDS011;6427;49.754;6.106;2023-06-04T03:08:47;1.87;;;1.20;;
12725;SDS011;6427;49.754;6.106;2023-06-04T03:11:14;2.20;;;1.53;;
12725;SDS011;6427;49.754;6.106;2023-06-04T03:13:42;2.53;;;1.10;;
12725;SDS011;6427;49.754;6.106;2023-06-04T03:16:10;4.90;;;1.67;;
12725;SDS011;6427;49.754;6.106;2023-06-04T03:18:40;2.57;;;1.67;;
12725;SDS011;6427;49.754;6.106;2023-06-04T03:21:08;3.00;;;1.40;;
12725;SDS011;6427;49.754;6.106;2023-06-04T03:23:35;4.13;;;1.57;;
12725;SDS011;6427;49.754;6.106;2023-06-04T03:26:04;2.03;;;1.13;;
12725;SDS011;6427;49.754;6.106;2023-06-04T03:28:31;2.37;;;1.20;;
12725;SDS011;6427;49.754;6.106;2023-06-04T03:30:59;4.13;;;1.47;;
12725;SDS011;6427;49.754;6.106;2023-06-04T03:33:27;1.73;;;1.10;;
12725;SDS011;6427;49.754;6.106;2023-06-04T03:35:55;3.07;;;1.73;;
12725;SDS011;6427;49.754;6.106;2023-06-04T03:38:25;2.73;;;1.43;;
12725;SDS011;6427;49.754;6.106;2023-06-04T03:40:53;2.47;;;1.20;;
12725;SDS011;6427;49.754;6.106;2023-06-04T03:43:21;1.80;;;1.40;;
12725;SDS011;6427;49.754;6.106;2023-06-04T03:45:48;2.70;;;1.60;;
12725;SDS011;6427;49.754;6.106;2023-06-04T03:48:16;1.93;;;1.70;;
12725;SDS011;6427;49.754;6.106;2023-06-04T03:50:44;4.73;;;1.30;;
12725;SDS011;6427;49.754;6.106;2023-06-04T03:53:12;2.07;;;1.53;;
12725;SDS011;6427;49.754;6.106;2023-06-04T03:55:39;2.10;;;1.20;;
12725;SDS011;6427;49.754;6.106;2023-06-04T03:58:07;8.33;;;1.80;;
12725;SDS011;6427;49.754;6.106;2023-06-04T04:00:35;3.00;;;1.60;;
12725;SDS011;6427;49.754;6.106;2023-06-04T04:03:02;4.00;;;1.30;;
12725;SDS011;6427;49.754;6.106;2023-06-04T04:05:30;2.90;;;1.17;;
12725;SDS011;6427;49.754;6.106;2023-06-04T04:07:57;4.30;;;1.13;;
12725;SDS011;6427;49.754;6.106;2023-06-04T04:10:25;3.67;;;1.20;;
12725;SDS011;6427;49.754;6.106;2023-06-04T04:12:53;4.03;;;1.10;;
12725;SDS011;6427;49.754;6.106;2023-06-04T04:15:20;2.07;;;1.20;;
12725;SDS011;6427;49.754;6.106;2023-06-04T04:17:48;1.80;;;0.97;;
12725;SDS011;6427;49.754;6.106;2023-06-04T04:20:16;4.53;;;1.10;;
12725;SDS011;6427;49.754;6.106;2023-06-04T04:22:44;1.50;;;1.10;;
12725;SDS011;6427;49.754;6.106;2023-06-04T04:25:11;2.10;;;1.30;;
12725;SDS011;6427;49.754;6.106;2023-06-04T04:27:39;3.23;;;1.30;;
12725;SDS011;6427;49.754;6.106;2023-06-04T04:30:06;2.57;;;1.40;;
12725;SDS011;6427;49.754;6.106;2023-06-04T04:32:34;2.12;;;1.20;;
12725;SDS011;6427;49.754;6.106;2023-06-04T04:35:02;2.03;;;1.40;;
12725;SDS011;6427;49.754;6.106;2023-06-04T04:37:29;3.60;;;1.27;;
12725;SDS011;6427;49.754;6.106;2023-06-04T04:39:57;1.53;;;1.27;;
12725;SDS011;6427;49.754;6.106;2023-06-04T04:42:24;3.08;;;1.30;;
12725;SDS011;6427;49.754;6.106;2023-06-04T04:44:52;2.80;;;1.37;;
12725;SDS011;6427;49.754;6.106;2023-06-04T04:47:20;1.60;;;0.90;;
12725;SDS011;6427;49.754;6.106;2023-06-04T04:49:47;1.83;;;1.10;;
12725;SDS011;6427;49.754;6.106;2023-06-04T04:52:15;1.93;;;1.10;;
12725;SDS011;6427;49.754;6.106;2023-06-04T04:54:42;1.60;;;0.97;;
12725;SDS011;6427;49.754;6.106;2023-06-04T04:57:10;1.85;;;1.10;;
12725;SDS011;6427;49.754;6.106;2023-06-04T04:59:38;1.07;;;0.97;;
12725;SDS011;6427;49.754;6.106;2023-06-04T05:02:05;2.27;;;1.20;;
12725;SDS011;6427;49.754;6.106;2023-06-04T05:04:33;3.53;;;1.50;;
12725;SDS011;6427;49.754;6.106;2023-06-04T05:07:00;1.20;;;0.87;;
12725;SDS011;6427;49.754;6.106;2023-06-04T05:09:28;2.13;;;1.23;;
12725;SDS011;6427;49.754;6.106;2023-06-04T05:11:56;4.00;;;0.80;;
12725;SDS011;6427;49.754;6.106;2023-06-04T05:14:23;2.67;;;0.83;;
12725;SDS011;6427;49.754;6.106;2023-06-04T05:16:51;2.47;;;0.93;;
12725;SDS011;6427;49.754;6.106;2023-06-04T05:19:18;2.57;;;1.10;;
12725;SDS011;6427;49.754;6.106;2023-06-04T05:21:46;2.80;;;1.20;;
12725;SDS011;6427;49.754;6.106;2023-06-04T05:24:14;2.63;;;1.20;;
12725;SDS011;6427;49.754;6.106;2023-06-04T05:26:41;1.73;;;1.00;;
12725;SDS011;6427;49.754;6.106;2023-06-04T05:29:09;1.87;;;1.00;;
12725;SDS011;6427;49.754;6.106;2023-06-04T05:31:36;1.63;;;1.03;;
12725;SDS011;6427;49.754;6.106;2023-06-04T05:34:05;1.70;;;1.00;;
12725;SDS011;6427;49.754;6.106;2023-06-04T05:36:32;1.73;;;1.00;;
12725;SDS011;6427;49.754;6.106;2023-06-04T05:39:01;0.80;;;0.80;;
12725;SDS011;6427;49.754;6.106;2023-06-04T05:41:28;4.47;;;1.17;;
12725;SDS011;6427;49.754;6.106;2023-06-04T05:43:57;2.20;;;0.90;;
12725;SDS011;6427;49.754;6.106;2023-06-04T05:46:24;1.70;;;1.23;;
12725;SDS011;6427;49.754;6.106;2023-06-04T05:48:52;3.73;;;1.23;;
12725;SDS011;6427;49.754;6.106;2023-06-04T05:51:20;1.30;;;1.10;;
12725;SDS011;6427;49.754;6.106;2023-06-04T05:53:47;3.47;;;1.30;;
12725;SDS011;6427;49.754;6.106;2023-06-04T05:56:15;1.83;;;1.13;;
12725;SDS011;6427;49.754;6.106;2023-06-04T05:58:43;8.13;;;1.43;;
12725;SDS011;6427;49.754;6.106;2023-06-04T06:01:11;2.12;;;1.12;;
12725;SDS011;6427;49.754;6.106;2023-06-04T06:03:38;3.62;;;1.20;;
12725;SDS011;6427;49.754;6.106;2023-06-04T06:06:07;3.30;;;1.10;;
12725;SDS011;6427;49.754;6.106;2023-06-04T06:08:34;2.30;;;1.00;;
12725;SDS011;6427;49.754;6.106;2023-06-04T06:11:02;3.37;;;0.93;;
12725;SDS011;6427;49.754;6.106;2023-06-04T06:13:29;2.13;;;1.07;;
12725;SDS011;6427;49.754;6.106;2023-06-04T06:15:57;3.13;;;1.20;;
12725;SDS011;6427;49.754;6.106;2023-06-04T06:18:25;2.00;;;1.10;;
12725;SDS011;6427;49.754;6.106;2023-06-04T06:20:53;4.23;;;1.33;;
12725;SDS011;6427;49.754;6.106;2023-06-04T06:23:20;2.50;;;1.10;;
12725;SDS011;6427;49.754;6.106;2023-06-04T06:25:48;2.80;;;1.23;;
12725;SDS011;6427;49.754;6.106;2023-06-04T06:28:16;3.67;;;1.10;;
12725;SDS011;6427;49.754;6.106;2023-06-04T06:30:43;2.78;;;1.20;;
12725;SDS011;6427;49.754;6.106;2023-06-04T06:33:11;3.83;;;1.27;;
12725;SDS011;6427;49.754;6.106;2023-06-04T06:35:38;3.60;;;1.47;;
12725;SDS011;6427;49.754;6.106;2023-06-04T06:38:06;3.07;;;1.10;;
12725;SDS011;6427;49.754;6.106;2023-06-04T06:40:34;2.70;;;0.93;;
12725;SDS011;6427;49.754;6.106;2023-06-04T06:43:01;1.40;;;0.80;;
12725;SDS011;6427;49.754;6.106;2023-06-04T06:45:29;1.97;;;1.03;;
12725;SDS011;6427;49.754;6.106;2023-06-04T06:47:56;3.03;;;1.20;;
12725;SDS011;6427;49.754;6.106;2023-06-04T06:50:24;3.23;;;1.20;;
12725;SDS011;6427;49.754;6.106;2023-06-04T06:52:52;1.87;;;1.20;;
12725;SDS011;6427;49.754;6.106;2023-06-04T06:55:19;1.47;;;1.10;;
12725;SDS011;6427;49.754;6.106;2023-06-04T06:57:47;1.63;;;0.90;;
12725;SDS011;6427;49.754;6.106;2023-06-04T07:00:14;7.00;;;1.10;;
12725;SDS011;6427;49.754;6.106;2023-06-04T07:02:42;3.73;;;1.00;;
12725;SDS011;6427;49.754;6.106;2023-06-04T07:05:10;2.90;;;1.40;;
12725;SDS011;6427;49.754;6.106;2023-06-04T07:07:38;2.75;;;1.20;;
12725;SDS011;6427;49.754;6.106;2023-06-04T07:10:06;3.47;;;1.30;;
12725;SDS011;6427;49.754;6.106;2023-06-04T07:12:34;3.07;;;0.93;;
12725;SDS011;6427;49.754;6.106;2023-06-04T07:15:02;2.37;;;1.00;;
12725;SDS011;6427;49.754;6.106;2023-06-04T07:17:30;2.87;;;1.20;;
12725;SDS011;6427;49.754;6.106;2023-06-04T07:19:57;4.87;;;1.07;;
12725;SDS011;6427;49.754;6.106;2023-06-04T07:22:25;1.63;;;1.00;;
12725;SDS011;6427;49.754;6.106;2023-06-04T07:24:53;3.08;;;1.20;;
12725;SDS011;6427;49.754;6.106;2023-06-04T07:27:21;4.03;;;1.23;;
12725;SDS011;6427;49.754;6.106;2023-06-04T07:29:49;4.03;;;1.33;;
12725;SDS011;6427;49.754;6.106;2023-06-04T07:32:16;5.10;;;0.93;;
12725;SDS011;6427;49.754;6.106;2023-06-04T07:34:44;3.07;;;1.10;;
12725;SDS011;6427;49.754;6.106;2023-06-04T07:37:11;2.37;;;1.10;;
12725;SDS011;6427;49.754;6.106;2023-06-04T07:39:39;1.97;;;0.77;;
12725;SDS011;6427;49.754;6.106;2023-06-04T07:42:07;4.20;;;1.30;;
12725;SDS011;6427;49.754;6.106;2023-06-04T07:44:36;1.90;;;1.10;;
12725;SDS011;6427;49.754;6.106;2023-06-04T07:47:02;2.70;;;1.35;;
12725;SDS011;6427;49.754;6.106;2023-06-04T07:49:29;4.27;;;1.47;;
12725;SDS011;6427;49.754;6.106;2023-06-04T07:51:57;2.47;;;1.10;;
12725;SDS011;6427;49.754;6.106;2023-06-04T07:54:25;2.33;;;1.00;;
12725;SDS011;6427;49.754;6.106;2023-06-04T07:56:52;1.40;;;0.90;;
12725;SDS011;6427;49.754;6.106;2023-06-04T07:59:20;2.10;;;1.10;;
12725;SDS011;6427;49.754;6.106;2023-06-04T08:01:49;3.35;;;1.35;;
12725;SDS011;6427;49.754;6.106;2023-06-04T08:04:15;2.73;;;1.40;;
12725;SDS011;6427;49.754;6.106;2023-06-04T08:06:43;2.78;;;1.40;;
12725;SDS011;6427;49.754;6.106;2023-06-04T08:09:10;3.78;;;1.20;;
12725;SDS011;6427;49.754;6.106;2023-06-04T08:11:39;2.37;;;1.20;;
12725;SDS011;6427;49.754;6.106;2023-06-04T08:14:06;2.10;;;1.43;;
12725;SDS011;6427;49.754;6.106;2023-06-04T08:16:34;1.77;;;0.90;;
12725;SDS011;6427;49.754;6.106;2023-06-04T08:19:01;1.87;;;1.30;;
12725;SDS011;6427;49.754;6.106;2023-06-04T08:21:29;2.47;;;0.90;;
12725;SDS011;6427;49.754;6.106;2023-06-04T08:23:57;2.87;;;1.23;;
12725;SDS011;6427;49.754;6.106;2023-06-04T08:26:25;3.03;;;1.10;;
12725;SDS011;6427;49.754;6.106;2023-06-04T08:28:54;1.85;;;1.02;;
12725;SDS011;6427;49.754;6.106;2023-06-04T08:31:22;2.67;;;1.17;;
12725;SDS011;6427;49.754;6.106;2023-06-04T08:33:49;4.47;;;1.20;;
12725;SDS011;6427;49.754;6.106;2023-06-04T08:36:17;2.07;;;1.10;;
12725;SDS011;6427;49.754;6.106;2023-06-04T08:38:44;5.20;;;1.27;;
12725;SDS011;6427;49.754;6.106;2023-06-04T08:41:15;3.07;;;1.40;;
12725;SDS011;6427;49.754;6.106;2023-06-04T08:43:42;3.10;;;1.03;;
12725;SDS011;6427;49.754;6.106;2023-06-04T08:46:10;1.55;;;1.10;;
12725;SDS011;6427;49.754;6.106;2023-06-04T08:48:38;3.50;;;1.20;;
12725;SDS011;6427;49.754;6.106;2023-06-04T08:51:06;3.12;;;1.30;;
12725;SDS011;6427;49.754;6.106;2023-06-04T08:53:37;2.97;;;1.47;;
12725;SDS011;6427;49.754;6.106;2023-06-04T08:56:05;4.77;;;1.30;;
12725;SDS011;6427;49.754;6.106;2023-06-04T08:58:32;1.98;;;1.20;;
12725;SDS011;6427;49.754;6.106;2023-06-04T09:01:00;2.93;;;1.10;;
12725;SDS011;6427;49.754;6.106;2023-06-04T09:03:28;2.43;;;1.27;;
12725;SDS011;6427;49.754;6.106;2023-06-04T09:05:55;2.50;;;1.10;;
12725;SDS011;6427;49.754;6.106;2023-06-04T09:08:23;2.40;;;1.35;;
12725;SDS011;6427;49.754;6.106;2023-06-04T09:10:50;3.53;;;1.10;;
12725;SDS011;6427;49.754;6.106;2023-06-04T09:13:18;2.83;;;1.10;;
12725;SDS011;6427;49.754;6.106;2023-06-04T09:15:45;1.92;;;1.30;;
12725;SDS011;6427;49.754;6.106;2023-06-04T09:18:13;2.53;;;1.10;;
12725;SDS011;6427;49.754;6.106;2023-06-04T09:20:41;1.97;;;1.10;;
12725;SDS011;6427;49.754;6.106;2023-06-04T09:23:12;2.70;;;1.10;;
12725;SDS011;6427;49.754;6.106;2023-06-04T09:25:41;1.87;;;1.30;;
12725;SDS011;6427;49.754;6.106;2023-06-04T09:28:08;2.25;;;1.25;;
12725;SDS011;6427;49.754;6.106;2023-06-04T09:30:35;2.17;;;1.10;;
12725;SDS011;6427;49.754;6.106;2023-06-04T09:33:07;3.27;;;1.33;;
12725;SDS011;6427;49.754;6.106;2023-06-04T09:35:34;1.63;;;1.30;;
12725;SDS011;6427;49.754;6.106;2023-06-04T09:38:04;1.97;;;1.30;;
12725;SDS011;6427;49.754;6.106;2023-06-04T09:40:37;2.60;;;1.30;;
12725;SDS011;6427;49.754;6.106;2023-06-04T09:43:03;2.33;;;1.47;;
12725;SDS011;6427;49.754;6.106;2023-06-04T09:45:35;4.30;;;1.57;;
12725;SDS011;6427;49.754;6.106;2023-06-04T09:48:02;3.50;;;1.23;;
12725;SDS011;6427;49.754;6.106;2023-06-04T09:50:31;2.77;;;1.30;;
12725;SDS011;6427;49.754;6.106;2023-06-04T09:53:00;4.30;;;1.47;;
12725;SDS011;6427;49.754;6.106;2023-06-04T09:55:27;3.28;;;1.40;;
12725;SDS011;6427;49.754;6.106;2023-06-04T09:57:56;3.70;;;1.50;;
12725;SDS011;6427;49.754;6.106;2023-06-04T10:00:23;3.00;;;1.35;;
12725;SDS011;6427;49.754;6.106;2023-06-04T10:02:54;5.07;;;1.33;;
12725;SDS011;6427;49.754;6.106;2023-06-04T10:05:18;2.37;;;1.50;;
12725;SDS011;6427;49.754;6.106;2023-06-04T10:07:46;7.30;;;1.30;;
12725;SDS011;6427;49.754;6.106;2023-06-04T10:10:15;3.93;;;1.33;;
12725;SDS011;6427;49.754;6.106;2023-06-04T10:12:41;2.17;;;1.57;;
12725;SDS011;6427;49.754;6.106;2023-06-04T10:15:12;3.65;;;1.42;;
12725;SDS011;6427;49.754;6.106;2023-06-04T10:17:39;2.53;;;1.30;;
12725;SDS011;6427;49.754;6.106;2023-06-04T10:20:08;4.60;;;1.50;;
12725;SDS011;6427;49.754;6.106;2023-06-04T10:22:36;6.33;;;1.20;;
12725;SDS011;6427;49.754;6.106;2023-06-04T10:25:03;3.33;;;1.40;;
12725;SDS011;6427;49.754;6.106;2023-06-04T10:27:31;3.05;;;1.67;;
12725;SDS011;6427;49.754;6.106;2023-06-04T10:29:58;2.63;;;1.90;;
12725;SDS011;6427;49.754;6.106;2023-06-04T10:32:30;2.83;;;1.37;;
12725;SDS011;6427;49.754;6.106;2023-06-04T10:34:54;2.63;;;1.30;;
12725;SDS011;6427;49.754;6.106;2023-06-04T10:37:22;2.77;;;1.50;;
12725;SDS011;6427;49.754;6.106;2023-06-04T10:39:53;1.50;;;1.40;;
12725;SDS011;6427;49.754;6.106;2023-06-04T10:42:20;2.53;;;1.53;;
12725;SDS011;6427;49.754;6.106;2023-06-04T10:44:49;2.07;;;1.70;;
12725;SDS011;6427;49.754;6.106;2023-06-04T10:47:26;2.17;;;1.63;;
12725;SDS011;6427;49.754;6.106;2023-06-04T10:49:50;3.30;;;1.60;;
12725;SDS011;6427;49.754;6.106;2023-06-04T10:52:17;4.83;;;1.70;;
12725;SDS011;6427;49.754;6.106;2023-06-04T10:54:45;3.67;;;1.93;;
12725;SDS011;6427;49.754;6.106;2023-06-04T10:57:12;7.20;;;2.10;;
12725;SDS011;6427;49.754;6.106;2023-06-04T10:59:40;2.37;;;1.40;;
12725;SDS011;6427;49.754;6.106;2023-06-04T11:02:08;3.40;;;1.90;;
12725;SDS011;6427;49.754;6.106;2023-06-04T11:04:36;4.40;;;1.77;;
12725;SDS011;6427;49.754;6.106;2023-06-04T11:07:05;2.27;;;1.37;;
12725;SDS011;6427;49.754;6.106;2023-06-04T11:09:35;1.97;;;1.50;;
12725;SDS011;6427;49.754;6.106;2023-06-04T11:12:04;5.33;;;1.90;;
12725;SDS011;6427;49.754;6.106;2023-06-04T11:14:30;4.87;;;1.83;;
12725;SDS011;6427;49.754;6.106;2023-06-04T11:17:08;2.87;;;1.53;;
12725;SDS011;6427;49.754;6.106;2023-06-04T11:19:40;4.67;;;1.70;;
12725;SDS011;6427;49.754;6.106;2023-06-04T11:22:11;4.43;;;1.63;;
12725;SDS011;6427;49.754;6.106;2023-06-04T11:24:38;8.07;;;1.70;;
12725;SDS011;6427;49.754;6.106;2023-06-04T11:27:06;3.10;;;1.50;;
12725;SDS011;6427;49.754;6.106;2023-06-04T11:29:34;3.23;;;1.80;;
12725;SDS011;6427;49.754;6.106;2023-06-04T11:32:01;2.50;;;1.33;;
12725;SDS011;6427;49.754;6.106;2023-06-04T11:34:29;6.12;;;2.15;;
12725;SDS011;6427;49.754;6.106;2023-06-04T11:36:56;4.60;;;1.80;;
12725;SDS011;6427;49.754;6.106;2023-06-04T11:39:33;1.80;;;1.53;;
12725;SDS011;6427;49.754;6.106;2023-06-04T11:41:52;4.30;;;1.90;;
12725;SDS011;6427;49.754;6.106;2023-06-04T11:44:20;3.53;;;1.50;;
12725;SDS011;6427;49.754;6.106;2023-06-04T11:46:48;4.12;;;1.70;;
12725;SDS011;6427;49.754;6.106;2023-06-04T11:49:17;4.37;;;1.60;;
12725;SDS011;6427;49.754;6.106;2023-06-04T11:51:53;4.77;;;1.43;;
12725;SDS011;6427;49.754;6.106;2023-06-04T11:54:21;5.00;;;1.80;;
12725;SDS011;6427;49.754;6.106;2023-06-04T11:56:49;8.00;;;3.70;;
12725;SDS011;6427;49.754;6.106;2023-06-04T11:59:17;3.83;;;2.30;;
12725;SDS011;6427;49.754;6.106;2023-06-04T12:01:45;5.93;;;2.87;;
12725;SDS011;6427;49.754;6.106;2023-06-04T12:04:15;2.40;;;1.67;;
12725;SDS011;6427;49.754;6.106;2023-06-04T12:06:58;3.13;;;1.67;;
12725;SDS011;6427;49.754;6.106;2023-06-04T12:09:29;5.60;;;2.63;;
12725;SDS011;6427;49.754;6.106;2023-06-04T12:11:59;5.23;;;3.10;;
12725;SDS011;6427;49.754;6.106;2023-06-04T12:14:30;5.17;;;2.10;;
12725;SDS011;6427;49.754;6.106;2023-06-04T12:17:00;6.67;;;2.13;;
12725;SDS011;6427;49.754;6.106;2023-06-04T12:19:27;5.50;;;2.10;;
12725;SDS011;6427;49.754;6.106;2023-06-04T12:22:05;3.80;;;1.83;;
12725;SDS011;6427;49.754;6.106;2023-06-04T12:24:32;5.23;;;2.20;;
12725;SDS011;6427;49.754;6.106;2023-06-04T12:27:04;3.90;;;1.90;;
12725;SDS011;6427;49.754;6.106;2023-06-04T12:29:31;2.40;;;1.90;;
12725;SDS011;6427;49.754;6.106;2023-06-04T12:32:04;4.27;;;1.87;;
12725;SDS011;6427;49.754;6.106;2023-06-04T12:34:29;4.47;;;1.83;;
12725;SDS011;6427;49.754;6.106;2023-06-04T12:36:57;3.80;;;2.07;;
12725;SDS011;6427;49.754;6.106;2023-06-04T12:39:25;3.73;;;1.90;;
12725;SDS011;6427;49.754;6.106;2023-06-04T12:41:53;2.83;;;2.00;;
12725;SDS011;6427;49.754;6.106;2023-06-04T12:44:20;2.37;;;1.83;;
12725;SDS011;6427;49.754;6.106;2023-06-04T12:46:48;3.13;;;1.60;;
12725;SDS011;6427;49.754;6.106;2023-06-04T12:49:16;3.23;;;1.97;;
12725;SDS011;6427;49.754;6.106;2023-06-04T12:51:44;2.77;;;1.90;;
12725;SDS011;6427;49.754;6.106;2023-06-04T12:54:11;3.77;;;2.20;;
12725;SDS011;6427;49.754;6.106;2023-06-04T12:56:39;3.50;;;2.07;;
12725;SDS011;6427;49.754;6.106;2023-06-04T12:59:07;4.33;;;2.10;;
12725;SDS011;6427;49.754;6.106;2023-06-04T13:01:34;2.50;;;2.20;;
12725;SDS011;6427;49.754;6.106;2023-06-04T13:04:02;6.23;;;2.17;;
12725;SDS011;6427;49.754;6.106;2023-06-04T13:06:29;4.23;;;1.97;;
12725;SDS011;6427;49.754;6.106;2023-06-04T13:08:57;4.10;;;1.98;;
12725;SDS011;6427;49.754;6.106;2023-06-04T13:11:25;4.27;;;2.03;;
12725;SDS011;6427;49.754;6.106;2023-06-04T13:13:52;2.90;;;1.97;;
12725;SDS011;6427;49.754;6.106;2023-06-04T13:16:20;5.10;;;2.40;;
12725;SDS011;6427;49.754;6.106;2023-06-04T13:18:47;2.60;;;1.87;;
12725;SDS011;6427;49.754;6.106;2023-06-04T13:21:15;5.73;;;2.13;;
12725;SDS011;6427;49.754;6.106;2023-06-04T13:23:43;4.05;;;2.28;;
12725;SDS011;6427;49.754;6.106;2023-06-04T13:26:10;4.60;;;2.37;;
12725;SDS011;6427;49.754;6.106;2023-06-04T13:28:38;3.80;;;2.13;;
12725;SDS011;6427;49.754;6.106;2023-06-04T13:31:05;2.73;;;2.30;;
12725;SDS011;6427;49.754;6.106;2023-06-04T13:33:33;4.97;;;2.10;;
12725;SDS011;6427;49.754;6.106;2023-06-04T13:36:03;2.20;;;1.80;;
12725;SDS011;6427;49.754;6.106;2023-06-04T13:38:31;3.40;;;2.33;;
12725;SDS011;6427;49.754;6.106;2023-06-04T13:40:59;2.80;;;1.77;;
12725;SDS011;6427;49.754;6.106;2023-06-04T13:43:26;2.97;;;2.15;;
12725;SDS011;6427;49.754;6.106;2023-06-04T13:45:54;3.10;;;2.00;;
12725;SDS011;6427;49.754;6.106;2023-06-04T13:48:21;2.20;;;1.93;;
12725;SDS011;6427;49.754;6.106;2023-06-04T13:50:49;2.80;;;2.20;;
12725;SDS011;6427;49.754;6.106;2023-06-04T13:53:17;4.73;;;2.17;;
12725;SDS011;6427;49.754;6.106;2023-06-04T13:55:46;4.60;;;1.95;;
12725;SDS011;6427;49.754;6.106;2023-06-04T13:58:16;6.07;;;2.07;;
12725;SDS011;6427;49.754;6.106;2023-06-04T14:00:43;2.30;;;1.90;;
12725;SDS011;6427;49.754;6.106;2023-06-04T14:03:12;5.37;;;1.97;;
12725;SDS011;6427;49.754;6.106;2023-06-04T14:05:39;4.67;;;2.20;;
12725;SDS011;6427;49.754;6.106;2023-06-04T14:08:07;6.50;;;2.40;;
12725;SDS011;6427;49.754;6.106;2023-06-04T14:10:34;4.63;;;2.00;;
12725;SDS011;6427;49.754;6.106;2023-06-04T14:13:02;2.40;;;1.60;;
12725;SDS011;6427;49.754;6.106;2023-06-04T14:15:30;3.15;;;2.10;;
12725;SDS011;6427;49.754;6.106;2023-06-04T14:17:57;4.67;;;1.73;;
12725;SDS011;6427;49.754;6.106;2023-06-04T14:20:26;4.55;;;2.05;;
12725;SDS011;6427;49.754;6.106;2023-06-04T14:22:53;3.53;;;2.00;;
12725;SDS011;6427;49.754;6.106;2023-06-04T14:25:21;3.70;;;1.90;;
12725;SDS011;6427;49.754;6.106;2023-06-04T14:27:48;4.23;;;1.97;;
12725;SDS011;6427;49.754;6.106;2023-06-04T14:30:16;2.57;;;1.77;;
12725;SDS011;6427;49.754;6.106;2023-06-04T14:32:44;4.17;;;2.10;;
12725;SDS011;6427;49.754;6.106;2023-06-04T14:35:12;3.10;;;2.07;;
12725;SDS011;6427;49.754;6.106;2023-06-04T14:37:40;3.37;;;1.97;;
12725;SDS011;6427;49.754;6.106;2023-06-04T14:40:08;2.73;;;2.10;;
12725;SDS011;6427;49.754;6.106;2023-06-04T14:42:36;3.23;;;1.97;;
12725;SDS011;6427;49.754;6.106;2023-06-04T14:45:03;4.27;;;2.00;;
12725;SDS011;6427;49.754;6.106;2023-06-04T14:47:31;4.30;;;2.20;;
12725;SDS011;6427;49.754;6.106;2023-06-04T14:49:58;3.73;;;2.00;;
12725;SDS011;6427;49.754;6.106;2023-06-04T14:52:26;2.50;;;1.70;;
12725;SDS011;6427;49.754;6.106;2023-06-04T14:54:54;3.93;;;2.00;;
12725;SDS011;6427;49.754;6.106;2023-06-04T14:57:21;2.00;;;1.60;;
12725;SDS011;6427;49.754;6.106;2023-06-04T14:59:49;2.67;;;1.80;;
12725;SDS011;6427;49.754;6.106;2023-06-04T15:02:16;3.47;;;1.90;;
12725;SDS011;6427;49.754;6.106;2023-06-04T15:04:44;3.67;;;1.93;;
12725;SDS011;6427;49.754;6.106;2023-06-04T15:07:12;4.77;;;1.87;;
12725;SDS011;6427;49.754;6.106;2023-06-04T15:09:40;2.80;;;1.70;;